Time;durP1;ratioP1;P1;durP2;ratioP2;P2;SDS_P1;SDS_P2;PMS_P1;PMS_P2;Temp;Humidity;BMP_temperature;BMP_pressure;BME280_temperature;BME280_humidity;BME280_pressure;Samples;Min_cycle;Max_cycle;Signal;HPM_P1;HPM_P2
2022/10/07 00:01:00;;;;;;;;;16.00;16.00;;;;;;;;5102700;27;45197;-76
2022/10/07 00:03:26;;;;;;;;;20.25;19.00;;;;;;;;5106704;27;45534;-77
2022/10/07 00:06:11;;;;;;;;;16.50;16.50;;;;;;;;5106413;27;45692;-78
2022/10/07 00:08:37;;;;;;;;;18.25;18.25;;;;;;;;5102862;27;45211;-77
2022/10/07 00:11:16;;;;;;;;;19.50;19.50;;;;;;;;5102583;27;45389;-75
2022/10/07 00:13:43;;;;;;;;;17.25;17.25;;;;;;;;5101511;27;45705;-77
2022/10/07 00:16:09;;;;;;;;;24.50;24.00;;;;;;;;5101517;27;45340;-77
2022/10/07 00:18:35;;;;;;;;;18.25;18.25;;;;;;;;5101749;27;45355;-77
2022/10/07 00:21:07;;;;;;;;;20.50;20.50;;;;;;;;5113156;27;45414;-78
2022/10/07 00:23:33;;;;;;;;;21.25;21.00;;;;;;;;5111615;27;45538;-77
2022/10/07 00:25:59;;;;;;;;;22.75;21.25;;;;;;;;5108158;27;45312;-75
2022/10/07 00:28:24;;;;;;;;;20.50;20.50;;;;;;;;5106255;27;45324;-78
2022/10/07 00:30:55;;;;;;;;;24.50;23.75;;;;;;;;5104372;27;45414;-75
2022/10/07 00:33:20;;;;;;;;;21.25;21.25;;;;;;;;5104407;27;46596;-75
2022/10/07 00:35:45;;;;;;;;;21.00;21.00;;;;;;;;5099948;27;45267;-76
2022/10/07 00:38:11;;;;;;;;;21.75;19.25;;;;;;;;5105484;27;45262;-78
2022/10/07 00:40:36;;;;;;;;;22.00;22.00;;;;;;;;5105815;27;45269;-78
2022/10/07 00:43:17;;;;;;;;;24.75;23.25;;;;;;;;5102950;27;46229;-77
2022/10/07 00:45:42;;;;;;;;;19.00;18.75;;;;;;;;5104152;27;45209;-77
2022/10/07 00:48:07;;;;;;;;;23.00;22.00;;;;;;;;5101205;27;45381;-77
2022/10/07 00:50:34;;;;;;;;;22.50;22.50;;;;;;;;5101844;27;45535;-76
2022/10/07 00:53:01;;;;;;;;;23.00;23.00;;;;;;;;5100354;27;45479;-76
2022/10/07 00:55:28;;;;;;;;;19.50;19.50;;;;;;;;5101742;27;45385;-77
2022/10/07 00:57:56;;;;;;;;;22.25;21.75;;;;;;;;5102251;27;45409;-76
2022/10/07 01:00:22;;;;;;;;;19.50;19.50;;;;;;;;5103836;27;45419;-77
2022/10/07 01:02:48;;;;;;;;;20.75;20.25;;;;;;;;5099899;27;46269;-77
2022/10/07 01:05:13;;;;;;;;;24.25;23.00;;;;;;;;5098487;27;45400;-77
2022/10/07 01:07:39;;;;;;;;;21.25;20.75;;;;;;;;5099966;27;45434;-77
2022/10/07 01:10:05;;;;;;;;;20.50;20.50;;;;;;;;5099974;27;45395;-75
2022/10/07 01:12:42;;;;;;;;;24.50;23.75;;;;;;;;5099123;27;45454;-76
2022/10/07 01:15:07;;;;;;;;;23.00;23.00;;;;;;;;5099498;27;45381;-75
2022/10/07 01:17:33;;;;;;;;;23.00;21.75;;;;;;;;5108728;27;45216;-77
2022/10/07 01:20:07;;;;;;;;;22.25;21.00;;;;;;;;5101256;27;45192;-77
2022/10/07 01:22:45;;;;;;;;;19.75;18.75;;;;;;;;5099008;27;46568;-74
2022/10/07 01:25:13;;;;;;;;;21.75;21.75;;;;;;;;5097319;27;45889;-77
2022/10/07 01:27:42;;;;;;;;;26.25;26.25;;;;;;;;5098339;27;45543;-78
2022/10/07 01:30:07;;;;;;;;;22.50;21.75;;;;;;;;5100545;27;45275;-76
2022/10/07 01:32:39;;;;;;;;;21.50;20.75;;;;;;;;5099635;27;46216;-75
2022/10/07 01:35:07;;;;;;;;;23.50;22.00;;;;;;;;5099289;27;45452;-76
2022/10/07 01:37:34;;;;;;;;;21.00;20.25;;;;;;;;5099627;27;45272;-76
2022/10/07 01:40:03;;;;;;;;;26.50;26.50;;;;;;;;5099652;27;45218;-76
2022/10/07 01:42:28;;;;;;;;;21.50;21.50;;;;;;;;5099420;27;46407;-76
2022/10/07 01:44:56;;;;;;;;;22.50;22.50;;;;;;;;5099662;27;45376;-77
2022/10/07 01:47:21;;;;;;;;;24.50;22.75;;;;;;;;5099516;27;45448;-77
2022/10/07 01:49:47;;;;;;;;;19.25;19.25;;;;;;;;5098680;27;45667;-76
2022/10/07 01:52:18;;;;;;;;;22.50;21.75;;;;;;;;5098742;27;45578;-77
2022/10/07 01:54:43;;;;;;;;;24.50;22.25;;;;;;;;5099506;27;45526;-74
2022/10/07 01:57:08;;;;;;;;;21.75;21.75;;;;;;;;5100490;27;45252;-77
2022/10/07 01:59:45;;;;;;;;;25.75;25.75;;;;;;;;5103680;27;45369;-77
2022/10/07 02:02:11;;;;;;;;;20.00;19.75;;;;;;;;5099152;27;45367;-75
2022/10/07 02:04:55;;;;;;;;;26.25;26.25;;;;;;;;5098526;27;45400;-76
2022/10/07 02:07:27;;;;;;;;;22.75;22.75;;;;;;;;5098514;27;45335;-77
2022/10/07 02:10:06;;;;;;;;;20.00;20.00;;;;;;;;5099430;27;45487;-75
2022/10/07 02:12:36;;;;;;;;;27.00;24.75;;;;;;;;5098820;27;46285;-78
2022/10/07 02:15:04;;;;;;;;;26.25;25.25;;;;;;;;5098176;27;45164;-75
2022/10/07 02:17:32;;;;;;;;;20.00;20.00;;;;;;;;5099261;27;45350;-75
2022/10/07 02:20:00;;;;;;;;;23.50;23.50;;;;;;;;5099038;27;45583;-77
2022/10/07 02:22:27;;;;;;;;;21.75;21.75;;;;;;;;5099392;27;45376;-77
2022/10/07 02:24:59;;;;;;;;;23.00;22.50;;;;;;;;5099404;27;45311;-77
2022/10/07 02:27:27;;;;;;;;;25.50;24.75;;;;;;;;5098481;27;45217;-77
2022/10/07 02:29:56;;;;;;;;;22.50;22.50;;;;;;;;5099143;27;45655;-76
2022/10/07 02:32:22;;;;;;;;;22.50;22.50;;;;;;;;5098681;27;46188;-77
2022/10/07 02:34:50;;;;;;;;;23.00;23.00;;;;;;;;5099139;27;46269;-77
2022/10/07 02:37:23;;;;;;;;;24.25;24.25;;;;;;;;5099008;27;45289;-77
2022/10/07 02:39:48;;;;;;;;;29.25;29.00;;;;;;;;5099449;27;45540;-76
2022/10/07 02:42:32;;;;;;;;;28.75;28.00;;;;;;;;5097598;27;47503;-76
2022/10/07 02:45:03;;;;;;;;;29.00;29.00;;;;;;;;5097849;27;45357;-75
2022/10/07 02:47:28;;;;;;;;;22.75;21.50;;;;;;;;5096328;27;45363;-75
2022/10/07 02:49:56;;;;;;;;;23.50;23.50;;;;;;;;5097271;27;45609;-78
2022/10/07 02:52:22;;;;;;;;;23.75;23.75;;;;;;;;5096372;27;47345;-76
2022/10/07 02:54:55;;;;;;;;;25.75;25.75;;;;;;;;5096995;27;45265;-75
2022/10/07 02:57:22;;;;;;;;;24.50;23.50;;;;;;;;5097164;27;45371;-75
2022/10/07 02:59:49;;;;;;;;;20.50;20.50;;;;;;;;5103580;27;45371;-76
2022/10/07 03:02:19;;;;;;;;;18.75;18.75;;;;;;;;5101765;27;46311;-75
2022/10/07 03:04:44;;;;;;;;;25.50;25.50;;;;;;;;5099357;27;45438;-76
2022/10/07 03:07:12;;;;;;;;;24.75;23.25;;;;;;;;5096128;27;45416;-76
2022/10/07 03:09:38;;;;;;;;;29.75;26.00;;;;;;;;5097917;27;45643;-77
2022/10/07 03:12:04;;;;;;;;;20.75;20.75;;;;;;;;5097659;27;45275;-75
2022/10/07 03:14:29;;;;;;;;;27.50;27.50;;;;;;;;5096611;27;45202;-76
2022/10/07 03:16:54;;;;;;;;;23.50;23.25;;;;;;;;5095046;27;45741;-74
2022/10/07 03:19:20;;;;;;;;;21.00;21.00;;;;;;;;5096408;27;45374;-74
2022/10/07 03:21:46;;;;;;;;;26.25;24.50;;;;;;;;5096912;27;45281;-77
2022/10/07 03:24:11;;;;;;;;;19.25;19.25;;;;;;;;5097033;27;45322;-76
2022/10/07 03:26:36;;;;;;;;;16.75;16.75;;;;;;;;5095645;27;45236;-77
2022/10/07 03:29:02;;;;;;;;;19.00;19.00;;;;;;;;5096986;27;45469;-75
2022/10/07 03:31:27;;;;;;;;;22.50;22.50;;;;;;;;5095174;27;48376;-76
2022/10/07 03:33:54;;;;;;;;;20.00;19.75;;;;;;;;5096030;27;45354;-75
2022/10/07 03:36:19;;;;;;;;;12.50;12.50;;;;;;;;5094708;27;45353;-76
2022/10/07 03:38:44;;;;;;;;;22.00;21.50;;;;;;;;5100955;27;45514;-76
2022/10/07 03:41:09;;;;;;;;;21.25;21.25;;;;;;;;5099362;27;48089;-75
2022/10/07 03:43:35;;;;;;;;;19.00;19.00;;;;;;;;5098593;27;45499;-75
2022/10/07 03:46:01;;;;;;;;;23.75;23.75;;;;;;;;5100244;27;45305;-76
2022/10/07 03:48:26;;;;;;;;;20.75;20.75;;;;;;;;5109532;27;45246;-77
2022/10/07 03:50:52;;;;;;;;;20.00;20.00;;;;;;;;5102809;27;45422;-76
2022/10/07 03:53:18;;;;;;;;;20.00;19.25;;;;;;;;5099893;27;45285;-77
2022/10/07 03:55:43;;;;;;;;;22.50;22.50;;;;;;;;5099949;27;45477;-75
2022/10/07 03:58:08;;;;;;;;;27.00;25.00;;;;;;;;5100128;27;45576;-76
2022/10/07 04:00:34;;;;;;;;;19.25;19.25;;;;;;;;5099978;27;45390;-76
2022/10/07 04:02:59;;;;;;;;;20.00;20.00;;;;;;;;5099801;27;45331;-75
2022/10/07 04:05:24;;;;;;;;;19.25;19.25;;;;;;;;5098397;27;45311;-75
2022/10/07 04:07:50;;;;;;;;;15.50;15.50;;;;;;;;5100331;27;45548;-75
2022/10/07 04:10:17;;;;;;;;;25.00;25.00;;;;;;;;5100157;27;46381;-76
2022/10/07 04:12:47;;;;;;;;;22.50;22.50;;;;;;;;5099843;27;45233;-77
2022/10/07 04:15:12;;;;;;;;;24.50;24.25;;;;;;;;5101042;27;45302;-75
2022/10/07 04:17:41;;;;;;;;;18.75;18.75;;;;;;;;5100232;27;45624;-76
2022/10/07 04:20:07;;;;;;;;;23.00;23.00;;;;;;;;5099756;27;45325;-76
2022/10/07 04:22:32;;;;;;;;;24.00;24.00;;;;;;;;5098881;27;45359;-75
2022/10/07 04:27:41;;;;;;;;;28.00;28.00;;;;;;;;5100526;27;45414;-75
2022/10/07 04:30:07;;;;;;;;;22.75;22.75;;;;;;;;5101127;27;46249;-76
2022/10/07 04:32:32;;;;;;;;;20.75;18.25;;;;;;;;5100227;27;45175;-75
2022/10/07 04:34:58;;;;;;;;;24.75;23.50;;;;;;;;5102755;27;45345;-76
2022/10/07 04:37:23;;;;;;;;;23.00;23.00;;;;;;;;5102080;27;45554;-76
2022/10/07 04:39:48;;;;;;;;;19.50;19.00;;;;;;;;5098726;27;47514;-76
2022/10/07 04:43:17;;;;;;;;;25.75;25.75;;;;;;;;5099654;27;45285;-75
2022/10/07 04:44:58;;;;;;;;;26.75;24.50;;;;;;;;5110237;27;45388;-78
2022/10/07 04:47:24;;;;;;;;;23.25;23.25;;;;;;;;5099800;27;45630;-75
2022/10/07 04:49:52;;;;;;;;;22.00;20.25;;;;;;;;5099145;27;46144;-75
2022/10/07 04:52:17;;;;;;;;;28.75;24.50;;;;;;;;5099208;27;45414;-75
2022/10/07 04:54:42;;;;;;;;;17.25;17.25;;;;;;;;5098376;27;45255;-78
2022/10/07 04:57:08;;;;;;;;;23.25;23.25;;;;;;;;5100695;27;45634;-76
2022/10/07 04:59:35;;;;;;;;;22.00;21.75;;;;;;;;5098500;27;47238;-74
2022/10/07 05:02:00;;;;;;;;;22.75;22.75;;;;;;;;5100009;27;45217;-76
2022/10/07 05:04:26;;;;;;;;;23.75;23.25;;;;;;;;5099953;27;45257;-76
2022/10/07 05:06:51;;;;;;;;;21.75;21.75;;;;;;;;5098947;27;45282;-75
2022/10/07 05:09:16;;;;;;;;;19.50;19.50;;;;;;;;5099132;27;45711;-74
2022/10/07 05:11:42;;;;;;;;;36.00;33.75;;;;;;;;5099729;27;45743;-77
2022/10/07 05:14:07;;;;;;;;;20.75;20.75;;;;;;;;5099981;27;45344;-75
2022/10/07 05:16:33;;;;;;;;;23.25;22.25;;;;;;;;5107032;27;45704;-77
2022/10/07 05:18:58;;;;;;;;;21.00;20.00;;;;;;;;5104415;27;45189;-77
2022/10/07 05:21:23;;;;;;;;;22.00;22.00;;;;;;;;5100480;27;45455;-75
2022/10/07 05:23:49;;;;;;;;;22.50;22.50;;;;;;;;5099651;27;45384;-76
2022/10/07 05:26:14;;;;;;;;;21.25;21.25;;;;;;;;5099517;27;45349;-77
2022/10/07 05:28:40;;;;;;;;;23.25;22.25;;;;;;;;5099063;27;46000;-75
2022/10/07 05:31:05;;;;;;;;;22.00;22.00;;;;;;;;5098941;27;45456;-75
2022/10/07 05:33:31;;;;;;;;;19.75;19.25;;;;;;;;5098613;27;45354;-76
2022/10/07 05:35:56;;;;;;;;;22.75;21.50;;;;;;;;5096667;27;45475;-78
2022/10/07 05:38:22;;;;;;;;;24.00;24.00;;;;;;;;5098104;27;46041;-77
2022/10/07 05:40:53;;;;;;;;;23.50;23.00;;;;;;;;5098177;27;45266;-76
2022/10/07 05:43:19;;;;;;;;;24.00;24.00;;;;;;;;5096914;27;45341;-76
2022/10/07 05:45:45;;;;;;;;;29.00;28.25;;;;;;;;5096738;27;45365;-75
2022/10/07 05:48:10;;;;;;;;;25.25;25.25;;;;;;;;5098236;27;45987;-75
2022/10/07 05:50:35;;;;;;;;;23.75;23.75;;;;;;;;5098338;27;45260;-77
2022/10/07 05:53:01;;;;;;;;;22.00;22.00;;;;;;;;5098074;27;45383;-76
2022/10/07 05:55:26;;;;;;;;;19.00;19.00;;;;;;;;5096840;27;45516;-77
2022/10/07 05:57:51;;;;;;;;;40.00;32.75;;;;;;;;5098067;27;45361;-76
2022/10/07 06:00:17;;;;;;;;;23.75;23.25;;;;;;;;5097253;27;45345;-76
2022/10/07 06:02:43;;;;;;;;;20.00;20.00;;;;;;;;5099065;27;45303;-76
2022/10/07 06:05:08;;;;;;;;;24.25;24.25;;;;;;;;5098101;27;45389;-79
2022/10/07 06:07:34;;;;;;;;;25.75;25.50;;;;;;;;5099617;27;46299;-76
2022/10/07 06:15:28;;;;;;;;;25.00;23.25;;;;;;;;5097484;27;45313;-76
2022/10/07 06:17:53;;;;;;;;;23.25;23.25;;;;;;;;5098018;27;45498;-76
2022/10/07 06:20:19;;;;;;;;;27.75;27.75;;;;;;;;5097449;27;45222;-75
2022/10/07 06:22:44;;;;;;;;;28.25;28.25;;;;;;;;5097812;27;45455;-78
2022/10/07 06:25:09;;;;;;;;;28.25;27.00;;;;;;;;5099165;27;45132;-76
2022/10/07 06:27:35;;;;;;;;;23.25;23.25;;;;;;;;5110584;27;45305;-75
2022/10/07 06:30:00;;;;;;;;;25.00;25.00;;;;;;;;5100521;27;45401;-74
2022/10/07 06:32:27;;;;;;;;;26.00;25.50;;;;;;;;5099942;27;45316;-76
2022/10/07 06:34:52;;;;;;;;;30.25;29.75;;;;;;;;5104345;27;45299;-79
2022/10/07 06:37:19;;;;;;;;;26.00;26.00;;;;;;;;5101512;27;46267;-76
2022/10/07 06:39:44;;;;;;;;;23.50;21.25;;;;;;;;5098698;27;45411;-76
2022/10/07 06:42:10;;;;;;;;;21.25;20.75;;;;;;;;5098238;27;45409;-76
2022/10/07 06:44:35;;;;;;;;;22.25;22.25;;;;;;;;5102826;27;45185;-74
2022/10/07 06:47:00;;;;;;;;;25.75;25.75;;;;;;;;5103190;27;45294;-77
2022/10/07 06:49:25;;;;;;;;;26.75;26.75;;;;;;;;5103717;27;45376;-77
2022/10/07 06:51:51;;;;;;;;;25.25;24.75;;;;;;;;5100496;27;45335;-78
2022/10/07 06:54:16;;;;;;;;;20.25;20.25;;;;;;;;5101204;27;45252;-77
2022/10/07 06:56:41;;;;;;;;;20.00;20.00;;;;;;;;5097129;27;46523;-77
2022/10/07 06:59:06;;;;;;;;;20.50;20.50;;;;;;;;5096898;27;45400;-74
2022/10/07 07:01:32;;;;;;;;;38.50;35.50;;;;;;;;5096591;27;45274;-76
2022/10/07 07:03:57;;;;;;;;;17.50;17.50;;;;;;;;5097471;27;45596;-79
2022/10/07 07:06:22;;;;;;;;;21.75;21.75;;;;;;;;5097224;27;45641;-76
2022/10/07 07:08:49;;;;;;;;;21.00;21.00;;;;;;;;5098429;27;45318;-74
2022/10/07 07:13:58;;;;;;;;;22.50;22.50;;;;;;;;5101047;27;45152;-77
2022/10/07 07:16:24;;;;;;;;;26.50;24.25;;;;;;;;5098296;27;45194;-78
2022/10/07 07:18:52;;;;;;;;;26.25;26.25;;;;;;;;5098416;27;45756;-76
2022/10/07 07:21:17;;;;;;;;;16.75;16.75;;;;;;;;5098421;27;45354;-76
2022/10/07 07:23:44;;;;;;;;;21.50;21.50;;;;;;;;5099955;27;45401;-76
2022/10/07 07:26:10;;;;;;;;;18.25;18.25;;;;;;;;5097893;27;47226;-76
2022/10/07 07:28:35;;;;;;;;;20.00;20.00;;;;;;;;5098912;27;45358;-78
2022/10/07 07:31:07;;;;;;;;;22.00;22.00;;;;;;;;5097725;27;45801;-76
2022/10/07 07:33:32;;;;;;;;;15.50;15.25;;;;;;;;5098456;27;45320;-77
2022/10/07 07:35:57;;;;;;;;;16.25;16.25;;;;;;;;5096939;27;46074;-78
2022/10/07 07:38:22;;;;;;;;;14.50;14.00;;;;;;;;5098083;27;45392;-79
2022/10/07 07:40:48;;;;;;;;;19.75;19.75;;;;;;;;5098255;27;45637;-77
2022/10/07 07:43:13;;;;;;;;;19.75;18.50;;;;;;;;5097919;27;45469;-78
2022/10/07 07:45:38;;;;;;;;;14.25;14.25;;;;;;;;5097770;27;45338;-77
2022/10/07 07:48:04;;;;;;;;;15.75;15.75;;;;;;;;5096758;27;45331;-77
2022/10/07 07:50:29;;;;;;;;;24.25;23.75;;;;;;;;5097220;27;45415;-77
2022/10/07 07:52:54;;;;;;;;;47.50;40.75;;;;;;;;5097629;27;45568;-75
2022/10/07 07:55:21;;;;;;;;;18.75;18.75;;;;;;;;5095640;27;45552;-77
2022/10/07 07:57:47;;;;;;;;;18.00;18.00;;;;;;;;5097500;27;45612;-74
2022/10/07 08:00:14;;;;;;;;;16.75;16.25;;;;;;;;5098824;27;45383;-76
2022/10/07 08:03:09;;;;;;;;;20.00;20.00;;;;;;;;5098609;27;45528;-78
2022/10/07 08:05:41;;;;;;;;;23.75;22.75;;;;;;;;5098487;27;45243;-79
2022/10/07 08:08:06;;;;;;;;;20.75;20.75;;;;;;;;5097592;27;45564;-76
2022/10/07 08:10:31;;;;;;;;;19.25;19.25;;;;;;;;5100594;27;45341;-76
2022/10/07 08:12:56;;;;;;;;;16.25;16.25;;;;;;;;5110618;27;44804;-78
2022/10/07 08:15:22;;;;;;;;;23.00;22.00;;;;;;;;5105367;27;46329;-76
2022/10/07 08:17:48;;;;;;;;;19.75;19.50;;;;;;;;5096957;27;45471;-76
2022/10/07 08:20:14;;;;;;;;;22.00;22.00;;;;;;;;5095870;27;45327;-78
2022/10/07 08:22:39;;;;;;;;;16.75;16.75;;;;;;;;5096599;27;45584;-76
2022/10/07 08:25:04;;;;;;;;;14.25;14.25;;;;;;;;5099364;27;46745;-76
2022/10/07 08:27:30;;;;;;;;;14.00;14.00;;;;;;;;5099852;27;45238;-75
2022/10/07 08:29:55;;;;;;;;;21.00;21.00;;;;;;;;5098464;27;45283;-75
2022/10/07 08:32:20;;;;;;;;;16.00;16.00;;;;;;;;5099303;27;45434;-77
2022/10/07 08:34:45;;;;;;;;;16.25;16.25;;;;;;;;5100346;27;46489;-76
2022/10/07 08:37:11;;;;;;;;;23.25;22.50;;;;;;;;5100061;27;45270;-76
2022/10/07 08:39:36;;;;;;;;;17.00;16.25;;;;;;;;5099356;27;45365;-76
2022/10/07 08:42:13;;;;;;;;;19.25;19.25;;;;;;;;5099997;27;45448;-76
2022/10/07 08:44:40;;;;;;;;;15.00;15.00;;;;;;;;5099619;27;45666;-76
2022/10/07 08:47:14;;;;;;;;;25.00;24.50;;;;;;;;5099069;27;45340;-77
2022/10/07 08:49:40;;;;;;;;;16.00;16.00;;;;;;;;5099373;27;45400;-75
2022/10/07 08:52:21;;;;;;;;;17.00;17.00;;;;;;;;5100175;27;45413;-77
2022/10/07 08:54:47;;;;;;;;;11.75;10.00;;;;;;;;5099523;27;45968;-76
2022/10/07 08:57:18;;;;;;;;;16.00;16.00;;;;;;;;5104174;27;45114;-77
2022/10/07 08:59:46;;;;;;;;;15.50;14.25;;;;;;;;5101980;27;45241;-77
2022/10/07 09:02:19;;;;;;;;;10.75;10.75;;;;;;;;5097837;27;45195;-77
2022/10/07 09:05:04;;;;;;;;;10.50;10.50;;;;;;;;5099040;27;46465;-77
2022/10/07 09:07:44;;;;;;;;;20.50;20.50;;;;;;;;5099153;27;45330;-78
2022/10/07 09:10:09;;;;;;;;;13.25;13.25;;;;;;;;5105152;27;45426;-77
2022/10/07 09:12:41;;;;;;;;;16.00;15.75;;;;;;;;5107085;27;45554;-77
2022/10/07 09:15:15;;;;;;;;;15.75;15.75;;;;;;;;5103992;27;45298;-76
2022/10/07 09:17:47;;;;;;;;;17.00;17.00;;;;;;;;5103188;27;45321;-76
2022/10/07 09:20:15;;;;;;;;;25.25;24.75;;;;;;;;5104486;27;45466;-76
2022/10/07 09:22:43;;;;;;;;;24.00;23.00;;;;;;;;5110662;27;45546;-78
2022/10/07 09:25:28;;;;;;;;;16.50;15.75;;;;;;;;5101772;27;46222;-78
2022/10/07 09:27:54;;;;;;;;;22.00;22.00;;;;;;;;5098720;27;45389;-78
2022/10/07 09:30:20;;;;;;;;;15.25;14.00;;;;;;;;5099241;27;45447;-77
2022/10/07 09:32:48;;;;;;;;;16.25;16.25;;;;;;;;5099772;27;45397;-76
2022/10/07 09:35:15;;;;;;;;;13.50;13.50;;;;;;;;5097660;27;47870;-77
2022/10/07 09:37:53;;;;;;;;;16.75;15.25;;;;;;;;5097822;27;45254;-76
2022/10/07 09:40:19;;;;;;;;;14.00;14.00;;;;;;;;5101583;27;45358;-78
2022/10/07 09:42:45;;;;;;;;;10.75;10.75;;;;;;;;5106864;27;45663;-78
2022/10/07 09:45:25;;;;;;;;;6.25;6.25;;;;;;;;5099388;27;45342;-75
2022/10/07 09:47:51;;;;;;;;;16.25;16.25;;;;;;;;5097086;27;45420;-76
2022/10/07 09:50:29;;;;;;;;;9.00;9.00;;;;;;;;5098173;27;45302;-77
2022/10/07 09:52:54;;;;;;;;;10.00;10.00;;;;;;;;5097054;27;45497;-76
2022/10/07 09:55:30;;;;;;;;;8.00;8.00;;;;;;;;5106266;27;45523;-76
2022/10/07 09:58:00;;;;;;;;;9.00;9.00;;;;;;;;5106105;27;45358;-77
2022/10/07 10:00:26;;;;;;;;;10.00;10.00;;;;;;;;5102361;27;45352;-77
2022/10/07 10:03:00;;;;;;;;;10.25;10.25;;;;;;;;5099883;27;45169;-75
2022/10/07 10:05:48;;;;;;;;;11.25;11.25;;;;;;;;5100406;27;46339;-78
2022/10/07 10:08:16;;;;;;;;;10.75;10.75;;;;;;;;5099958;27;45458;-77
2022/10/07 10:10:48;;;;;;;;;15.25;14.25;;;;;;;;5099875;27;45356;-77
2022/10/07 10:13:23;;;;;;;;;11.50;11.50;;;;;;;;5099773;27;45270;-78
2022/10/07 10:15:48;;;;;;;;;5.00;4.25;;;;;;;;5098635;27;45414;-79
2022/10/07 10:18:23;;;;;;;;;6.75;6.75;;;;;;;;5097346;27;46046;-76
2022/10/07 10:20:48;;;;;;;;;10.25;6.75;;;;;;;;5101008;27;45540;-76
2022/10/07 10:23:34;;;;;;;;;16.00;15.75;;;;;;;;5099308;27;45548;-77
2022/10/07 10:26:24;;;;;;;;;15.25;14.75;;;;;;;;5097441;27;46615;-77
2022/10/07 10:29:06;;;;;;;;;18.50;18.50;;;;;;;;5098102;27;45810;-78
2022/10/07 10:31:37;;;;;;;;;10.00;10.00;;;;;;;;5098713;27;45460;-77
2022/10/07 10:34:02;;;;;;;;;8.50;7.25;;;;;;;;5099088;27;45481;-77
2022/10/07 10:36:30;;;;;;;;;12.00;12.00;;;;;;;;5099142;27;45341;-78
2022/10/07 10:39:00;;;;;;;;;8.50;8.50;;;;;;;;5098311;27;45483;-80
2022/10/07 10:41:30;;;;;;;;;190.25;161.25;;;;;;;;5098573;27;45350;-79
2022/10/07 10:43:55;;;;;;;;;37.75;33.75;;;;;;;;5097561;27;45353;-79
2022/10/07 10:46:39;;;;;;;;;25.00;25.00;;;;;;;;5097769;27;46587;-77
2022/10/07 10:49:09;;;;;;;;;11.75;11.75;;;;;;;;5098643;27;45404;-76
2022/10/07 10:51:44;;;;;;;;;10.25;9.50;;;;;;;;5099884;27;45349;-78
2022/10/07 10:54:12;;;;;;;;;10.50;10.50;;;;;;;;5107414;27;45263;-79
2022/10/07 10:56:46;;;;;;;;;8.00;8.00;;;;;;;;5104317;27;45356;-76
2022/10/07 10:59:41;;;;;;;;;3.00;3.00;;;;;;;;5097588;27;45275;-76
2022/10/07 11:02:16;;;;;;;;;5.00;5.00;;;;;;;;5092798;27;45382;-76
2022/10/07 11:04:51;;;;;;;;;5.00;5.00;;;;;;;;5096816;27;45378;-76
2022/10/07 11:07:26;;;;;;;;;4.00;4.00;;;;;;;;5098586;27;45660;-79
2022/10/07 11:09:57;;;;;;;;;3.00;3.00;;;;;;;;5104584;27;45864;-77
2022/10/07 11:12:25;;;;;;;;;9.00;9.00;;;;;;;;5106319;27;45259;-77
2022/10/07 11:14:55;;;;;;;;;8.25;8.25;;;;;;;;5098860;27;45962;-76
2022/10/07 11:17:25;;;;;;;;;6.00;6.00;;;;;;;;5096448;27;45452;-78
2022/10/07 11:19:58;;;;;;;;;15.00;15.00;;;;;;;;5097552;27;45400;-76
2022/10/07 11:22:31;;;;;;;;;10.00;10.00;;;;;;;;5098681;27;45255;-77
2022/10/07 11:25:01;;;;;;;;;4.00;4.00;;;;;;;;5099199;27;45434;-79
2022/10/07 11:27:28;;;;;;;;;5.50;5.50;;;;;;;;5097569;27;46678;-79
2022/10/07 11:30:00;;;;;;;;;15.00;11.00;;;;;;;;5098205;27;45460;-77
2022/10/07 11:32:41;;;;;;;;;8.00;8.00;;;;;;;;5098533;27;45372;-77
2022/10/07 11:35:22;;;;;;;;;3.50;3.50;;;;;;;;5096912;27;45469;-78
2022/10/07 11:38:11;;;;;;;;;12.75;12.75;;;;;;;;5098517;27;45305;-78
2022/10/07 11:40:51;;;;;;;;;16.25;14.00;;;;;;;;5107735;27;45316;-78
2022/10/07 11:43:25;;;;;;;;;5.25;5.00;;;;;;;;5099130;27;45293;-78
2022/10/07 11:45:53;;;;;;;;;3.50;3.50;;;;;;;;5098280;27;45251;-77
2022/10/07 11:48:22;;;;;;;;;2.00;2.00;;;;;;;;5098112;27;46219;-76
2022/10/07 11:50:53;;;;;;;;;2.25;2.25;;;;;;;;5098076;27;45350;-78
2022/10/07 11:53:20;;;;;;;;;5.00;5.00;;;;;;;;5096307;27;45432;-79
2022/10/07 11:55:56;;;;;;;;;5.00;5.00;;;;;;;;5098648;27;45393;-77
2022/10/07 11:58:33;;;;;;;;;3.50;3.50;;;;;;;;5102100;27;46533;-79
2022/10/07 12:01:17;;;;;;;;;4.00;4.00;;;;;;;;5103930;27;45346;-78
2022/10/07 12:03:43;;;;;;;;;5.25;3.75;;;;;;;;5102119;27;45330;-78
2022/10/07 12:06:10;;;;;;;;;5.75;5.75;;;;;;;;5101280;27;45332;-78
2022/10/07 12:08:40;;;;;;;;;5.50;5.50;;;;;;;;5101051;27;45213;-78
2022/10/07 12:11:11;;;;;;;;;11.75;11.50;;;;;;;;5101425;27;45401;-76
2022/10/07 12:13:44;;;;;;;;;5.75;5.75;;;;;;;;5101587;27;45206;-76
2022/10/07 12:16:22;;;;;;;;;5.50;5.50;;;;;;;;5102119;27;45753;-78
2022/10/07 12:19:05;;;;;;;;;3.75;3.75;;;;;;;;5101232;27;45275;-78
2022/10/07 12:21:49;;;;;;;;;4.75;4.75;;;;;;;;5100911;27;45272;-79
2022/10/07 12:24:14;;;;;;;;;3.00;3.00;;;;;;;;5101091;27;45308;-79
2022/10/07 12:26:42;;;;;;;;;3.25;3.00;;;;;;;;5099497;27;45699;-77
2022/10/07 12:29:17;;;;;;;;;3.00;3.00;;;;;;;;5099386;27;46327;-79
2022/10/07 12:31:45;;;;;;;;;3.75;3.75;;;;;;;;5102375;27;45185;-77
2022/10/07 12:34:10;;;;;;;;;4.00;4.00;;;;;;;;5110265;27;45277;-80
2022/10/07 12:36:39;;;;;;;;;2.75;2.75;;;;;;;;5115990;27;44945;-80
2022/10/07 12:39:11;;;;;;;;;9.50;9.50;;;;;;;;5110585;27;45492;-77
2022/10/07 12:41:38;;;;;;;;;6.75;6.75;;;;;;;;5103013;27;45320;-78
2022/10/07 12:44:19;;;;;;;;;4.25;4.25;;;;;;;;5099920;27;45427;-79
2022/10/07 12:46:50;;;;;;;;;3.00;3.00;;;;;;;;5100111;27;45547;-77
2022/10/07 12:49:30;;;;;;;;;4.75;4.75;;;;;;;;5100775;27;46532;-78
2022/10/07 12:51:58;;;;;;;;;7.00;7.00;;;;;;;;5099820;27;45442;-77
2022/10/07 12:54:31;;;;;;;;;9.25;9.25;;;;;;;;5102162;27;45388;-78
2022/10/07 12:56:57;;;;;;;;;80.75;78.00;;;;;;;;5101605;27;45299;-78
2022/10/07 12:59:47;;;;;;;;;119.75;119.25;;;;;;;;5101586;27;46480;-78
2022/10/07 13:02:31;;;;;;;;;74.00;69.00;;;;;;;;5100548;27;45389;-78
2022/10/07 13:04:56;;;;;;;;;3.50;3.50;;;;;;;;5102420;27;45288;-79
2022/10/07 13:07:42;;;;;;;;;5.25;5.25;;;;;;;;5099053;27;45416;-79
2022/10/07 13:10:07;;;;;;;;;12.00;12.00;;;;;;;;5098312;27;45311;-77
2022/10/07 13:12:42;;;;;;;;;4.75;4.75;;;;;;;;5098752;27;45408;-77
2022/10/07 13:15:15;;;;;;;;;10.75;10.75;;;;;;;;5098861;27;45246;-77
2022/10/07 13:17:59;;;;;;;;;11.75;9.75;;;;;;;;5099417;27;45223;-78
2022/10/07 13:20:39;;;;;;;;;6.50;6.50;;;;;;;;5098294;27;46544;-77
2022/10/07 13:23:14;;;;;;;;;6.00;6.00;;;;;;;;5105042;27;45368;-77
2022/10/07 13:25:44;;;;;;;;;4.00;4.00;;;;;;;;5101959;27;45292;-78
2022/10/07 13:28:17;;;;;;;;;3.50;3.50;;;;;;;;5099795;27;45176;-75
2022/10/07 13:30:43;;;;;;;;;3.75;3.75;;;;;;;;5099207;27;45368;-76
2022/10/07 13:33:11;;;;;;;;;6.00;6.00;;;;;;;;5099337;27;45384;-78
2022/10/07 13:35:37;;;;;;;;;4.00;4.00;;;;;;;;5099000;27;45239;-79
2022/10/07 13:38:02;;;;;;;;;4.00;4.00;;;;;;;;5099388;27;45306;-77
2022/10/07 13:40:34;;;;;;;;;5.75;5.75;;;;;;;;5099516;27;45448;-78
2022/10/07 13:43:03;;;;;;;;;5.75;5.75;;;;;;;;5097893;27;45352;-79
2022/10/07 13:45:32;;;;;;;;;7.00;7.00;;;;;;;;5100564;27;45431;-78
2022/10/07 13:47:58;;;;;;;;;3.25;3.25;;;;;;;;5100882;27;45417;-77
2022/10/07 13:50:25;;;;;;;;;1.00;0.00;;;;;;;;5100460;27;45515;-77
2022/10/07 13:52:52;;;;;;;;;5.00;5.00;;;;;;;;5099126;27;45245;-79
2022/10/07 13:55:37;;;;;;;;;5.00;5.00;;;;;;;;5098916;27;45409;-78
2022/10/07 13:58:04;;;;;;;;;4.00;4.00;;;;;;;;5098855;27;45443;-78
2022/10/07 14:00:31;;;;;;;;;4.25;4.25;;;;;;;;5098487;27;46569;-78
2022/10/07 14:02:56;;;;;;;;;4.75;4.75;;;;;;;;5098703;27;45362;-78
2022/10/07 14:05:23;;;;;;;;;4.00;4.00;;;;;;;;5099558;27;45362;-78
2022/10/07 14:07:52;;;;;;;;;3.50;3.50;;;;;;;;5097971;27;45592;-77
2022/10/07 14:10:18;;;;;;;;;2.00;2.00;;;;;;;;5098793;27;45304;-77
2022/10/07 14:12:53;;;;;;;;;3.75;3.25;;;;;;;;5100384;27;45381;-76
2022/10/07 14:15:20;;;;;;;;;4.00;4.00;;;;;;;;5099319;27;45393;-79
2022/10/07 14:17:47;;;;;;;;;3.25;3.25;;;;;;;;5098755;27;45527;-77
2022/10/07 14:20:15;;;;;;;;;1.00;1.00;;;;;;;;5092645;27;45922;-78
2022/10/07 14:22:41;;;;;;;;;0.50;0.50;;;;;;;;5076501;28;45375;-76
2022/10/07 14:25:18;;;;;;;;;1.00;1.00;;;;;;;;5079010;28;45411;-78
2022/10/07 14:27:43;;;;;;;;;3.50;3.25;;;;;;;;5081600;28;45473;-77
2022/10/07 14:30:26;;;;;;;;;5.25;5.25;;;;;;;;5086395;28;45545;-77
2022/10/07 14:36:06;;;;;;;;;3.50;3.50;;;;;;;;5079794;28;45467;-75
2022/10/07 14:38:31;;;;;;;;;1.75;1.75;;;;;;;;5079065;28;45379;-77
2022/10/07 14:40:56;;;;;;;;;2.75;2.75;;;;;;;;5060297;28;47437;-78
2022/10/07 14:43:22;;;;;;;;;2.00;1.00;;;;;;;;5079050;28;45426;-76
2022/10/07 14:45:47;;;;;;;;;0.25;0.25;;;;;;;;5078382;28;45426;-77
2022/10/07 14:48:13;;;;;;;;;3.00;3.00;;;;;;;;5077473;28;45704;-77